Time;durP1;ratioP1;P1;durP2;ratioP2;P2;SDS_P1;SDS_P2;PMS_P1;PMS_P2;Temp;Humidity;BMP_temperature;BMP_pressure;BME280_temperature;BME280_humidity;BME280_pressure;Samples;Min_cycle;Max_cycle;Signal;HPM_P1;HPM_P2
2022/10/02 00:08:37;;;;;;;1999.90;999.90;;;13.70;99.90;;;;;;6673562;88;20204;-80
2022/10/02 00:18:39;;;;;;;1999.90;999.90;;;13.90;99.90;;;;;;6676692;89;20226;-82
2022/10/02 00:28:55;;;;;;;1999.90;999.90;;;14.00;99.90;;;;;;6677212;89;20240;-82
2022/10/02 00:39:24;;;;;;;1999.90;999.90;;;14.00;99.90;;;;;;6698450;88;21117;-82
2022/10/02 00:49:51;;;;;;;1999.90;999.90;;;14.40;99.90;;;;;;6676993;88;20200;-81
2022/10/02 00:59:51;;;;;;;1999.90;999.90;;;14.40;99.90;;;;;;6677143;88;20173;-82
2022/10/02 01:09:52;;;;;;;1999.90;999.90;;;14.50;99.90;;;;;;6743052;88;20667;-81
2022/10/02 01:19:54;;;;;;;1999.90;999.90;;;14.50;99.90;;;;;;6638292;89;20206;-83
2022/10/02 01:29:59;;;;;;;1999.90;999.90;;;14.40;99.90;;;;;;6639366;89;20637;-81
2022/10/02 01:40:08;;;;;;;1999.90;999.90;;;14.30;99.90;;;;;;6628859;89;20305;-81
2022/10/02 01:50:12;;;;;;;1999.90;999.90;;;14.40;99.90;;;;;;6639131;89;20197;-83
2022/10/02 02:00:23;;;;;;;1999.90;999.90;;;14.40;99.90;;;;;;6638030;89;20239;-81
2022/10/02 02:10:38;;;;;;;1999.90;999.90;;;14.50;99.90;;;;;;6669173;88;20691;-81
2022/10/02 02:20:46;;;;;;;1999.90;999.90;;;14.50;99.90;;;;;;6743716;88;20170;-81
2022/10/02 02:30:50;;;;;;;1999.90;999.90;;;14.50;99.90;;;;;;6726445;88;20360;-82
2022/10/02 02:40:51;;;;;;;1999.90;999.90;;;14.60;99.90;;;;;;6723117;77;20240;-77
2022/10/02 02:51:03;;;;;;;1999.90;999.90;;;14.50;99.90;;;;;;6659233;88;20261;-76
2022/10/02 03:01:04;;;;;;;1999.90;999.90;;;14.50;99.90;;;;;;6646877;89;20589;-77
2022/10/02 03:11:26;;;;;;;1999.90;999.90;;;14.60;99.90;;;;;;6646065;88;20241;-77
2022/10/02 03:21:49;;;;;;;1999.90;999.90;;;14.60;99.90;;;;;;6645588;89;20176;-76
2022/10/02 03:31:51;;;;;;;1999.90;999.90;;;14.80;99.90;;;;;;6646250;89;20216;-77
2022/10/02 03:41:52;;;;;;;1999.90;999.90;;;14.80;99.90;;;;;;6648730;89;20227;-76
2022/10/02 03:51:52;;;;;;;1999.90;999.90;;;14.90;99.90;;;;;;6645354;89;20213;-77
2022/10/02 04:01:56;;;;;;;1999.90;999.90;;;14.80;99.90;;;;;;6645842;89;20629;-76
2022/10/02 04:12:04;;;;;;;1999.90;999.90;;;14.70;99.90;;;;;;6646082;89;20214;-76
2022/10/02 04:22:13;;;;;;;1999.90;999.90;;;14.50;99.90;;;;;;6645152;89;20190;-76
2022/10/02 04:32:25;;;;;;;1999.90;999.90;;;14.10;99.90;;;;;;6628233;89;20193;-76
2022/10/02 04:42:43;;;;;;;1999.90;999.90;;;13.80;99.90;;;;;;6627116;89;20205;-76
2022/10/02 04:52:53;;;;;;;1999.90;999.90;;;13.80;99.90;;;;;;6629010;89;20188;-76
2022/10/02 05:03:01;;;;;;;1999.90;999.90;;;13.80;99.90;;;;;;6630747;89;21084;-76
2022/10/02 05:13:40;;;;;;;1999.90;999.90;;;13.80;99.90;;;;;;6631004;89;20252;-77
2022/10/02 05:23:50;;;;;;;1999.90;999.90;;;13.90;99.90;;;;;;6630937;89;20189;-77
2022/10/02 05:34:30;;;;;;;1999.90;999.90;;;13.80;99.90;;;;;;6630189;89;20243;-76
2022/10/02 05:44:36;;;;;;;1999.90;999.90;;;13.70;99.90;;;;;;6636422;88;20224;-76
2022/10/02 05:55:09;;;;;;;1999.90;999.90;;;13.70;99.90;;;;;;6643816;88;20656;-77
2022/10/02 06:05:20;;;;;;;1999.90;999.90;;;13.80;99.90;;;;;;6629665;89;20343;-76
2022/10/02 06:15:30;;;;;;;1999.90;999.90;;;13.70;99.90;;;;;;6630236;89;20320;-76
2022/10/02 06:25:46;;;;;;;1999.90;999.90;;;13.60;99.90;;;;;;6631819;89;20223;-76
2022/10/02 06:36:03;;;;;;;1999.90;999.90;;;13.60;99.90;;;;;;6629442;89;20234;-77
2022/10/02 06:46:13;;;;;;;1999.90;999.90;;;13.70;99.90;;;;;;6629166;89;20226;-76
2022/10/02 06:56:43;;;;;;;1999.90;999.90;;;13.80;99.90;;;;;;6629017;89;20296;-76
2022/10/02 07:07:05;;;;;;;1999.90;999.90;;;13.90;99.90;;;;;;6629012;89;20214;-75
2022/10/02 07:17:21;;;;;;;1999.90;999.90;;;13.90;99.90;;;;;;6629072;89;20859;-76
2022/10/02 07:27:41;;;;;;;1999.90;999.90;;;13.90;99.90;;;;;;6630470;89;20230;-76
2022/10/02 07:37:41;;;;;;;1999.90;999.90;;;13.90;99.90;;;;;;6643530;88;20200;-74
2022/10/02 07:47:53;;;;;;;1999.90;999.90;;;14.00;99.90;;;;;;6646410;89;20213;-77
2022/10/02 07:58:11;;;;;;;1999.90;999.90;;;14.00;99.90;;;;;;6649569;89;20200;-76
2022/10/02 08:08:22;;;;;;;1999.90;999.90;;;14.20;99.90;;;;;;6644517;89;20230;-75
2022/10/02 08:18:36;;;;;;;1999.90;999.90;;;14.30;99.90;;;;;;6640707;89;20189;-76
2022/10/02 08:28:51;;;;;;;1999.90;999.90;;;14.30;99.90;;;;;;6646037;88;20192;-75
2022/10/02 08:38:56;;;;;;;;;;;14.50;99.90;;;;;;6634320;89;20194;-77
2022/10/02 08:49:32;;;;;;;1999.90;999.90;;;14.50;99.90;;;;;;6648127;89;20538;-77
2022/10/02 09:00:13;;;;;;;1999.90;999.90;;;14.50;99.90;;;;;;6649398;89;20287;-77
2022/10/02 09:10:52;;;;;;;1999.90;999.90;;;14.50;99.90;;;;;;6662107;88;20664;-78
2022/10/02 09:20:55;;;;;;;1999.90;999.90;;;14.60;99.90;;;;;;6651615;88;20316;-79
2022/10/02 09:31:44;;;;;;;1999.90;999.90;;;14.70;99.90;;;;;;6650825;88;20196;-78
2022/10/02 09:42:06;;;;;;;1999.90;999.90;;;14.80;99.90;;;;;;6652424;88;20221;-77
2022/10/02 09:52:49;;;;;;;1999.90;999.90;;;15.20;99.90;;;;;;6658577;88;20216;-78
2022/10/02 10:03:01;;;;;;;1999.90;999.90;;;15.50;99.90;;;;;;6647998;88;20209;-77
2022/10/02 10:13:15;;;;;;;1999.90;999.90;;;16.10;99.90;;;;;;6645378;89;20188;-79
2022/10/02 10:23:53;;;;;;;1999.90;999.90;;;16.00;99.90;;;;;;6644569;88;20300;-77
2022/10/02 10:34:28;;;;;;;1999.90;999.90;;;16.10;99.90;;;;;;6672576;88;20282;-77
2022/10/02 10:44:46;;;;;;;1999.90;999.90;;;16.30;99.90;;;;;;6646126;88;20352;-79
2022/10/02 10:55:03;;;;;;;1999.90;999.90;;;16.30;99.90;;;;;;6648398;88;20192;-79
2022/10/02 11:05:34;;;;;;;1999.90;999.90;;;16.30;99.90;;;;;;6645650;89;20197;-78
2022/10/02 11:16:14;;;;;;;1999.90;999.90;;;16.00;99.90;;;;;;6646313;88;20205;-77
2022/10/02 11:26:56;;;;;;;1999.90;999.90;;;15.90;99.90;;;;;;6647994;88;20197;-79
2022/10/02 11:37:23;;;;;;;1999.90;999.90;;;16.30;99.90;;;;;;6647421;88;20203;-77
2022/10/02 11:47:33;;;;;;;1999.90;999.90;;;16.60;99.90;;;;;;6645698;88;20204;-77
2022/10/02 11:58:05;;;;;;;1999.90;999.90;;;16.90;99.90;;;;;;6651498;88;20213;-78
2022/10/02 12:08:18;;;;;;;1999.90;999.90;;;16.80;99.90;;;;;;6645381;88;20683;-78
2022/10/02 12:18:45;;;;;;;1999.90;999.90;;;16.80;99.90;;;;;;6646462;88;20328;-77
2022/10/02 12:29:01;;;;;;;1999.90;999.90;;;17.00;99.90;;;;;;6642471;88;20713;-78
2022/10/02 12:39:40;;;;;;;1999.90;999.90;;;16.70;99.90;;;;;;6646261;88;20692;-77
2022/10/02 12:49:52;;;;;;;1999.90;999.90;;;17.10;99.90;;;;;;6642026;88;20740;-77
2022/10/02 13:00:01;;;;;;;1999.90;999.90;;;17.80;99.90;;;;;;6642877;88;20225;-77
2022/10/02 13:10:18;;;;;;;1999.90;999.90;;;18.10;99.90;;;;;;6649148;88;20278;-77
2022/10/02 13:20:43;;;;;;;1999.90;999.90;;;18.60;99.90;;;;;;6658152;88;20203;-78
2022/10/02 13:31:14;;;;;;;1999.90;999.90;;;18.50;99.90;;;;;;6653219;88;20230;-76
2022/10/02 13:41:46;;;;;;;1999.90;999.90;;;18.00;99.90;;;;;;6659667;88;20215;-76
2022/10/02 13:52:12;;;;;;;1999.90;999.90;;;17.70;99.90;;;;;;6651981;88;20228;-77
2022/10/02 14:02:12;;;;;;;1999.90;999.90;;;17.90;99.90;;;;;;6652124;88;20271;-77
2022/10/02 14:12:36;;;;;;;1999.90;999.90;;;17.40;99.90;;;;;;6644133;88;20358;-78
2022/10/02 14:23:11;;;;;;;1999.90;999.90;;;17.30;99.90;;;;;;6638371;88;20213;-78
2022/10/02 14:33:47;;;;;;;1999.90;999.90;;;17.20;99.90;;;;;;6661725;88;20201;-76
2022/10/02 14:44:02;;;;;;;1999.90;999.90;;;17.00;99.90;;;;;;6651033;88;20621;-77
2022/10/02 14:54:30;;;;;;;1999.90;999.90;;;17.00;99.90;;;;;;6647203;89;20239;-77
2022/10/02 15:04:42;;;;;;;1999.90;999.90;;;16.80;99.90;;;;;;6629953;89;20184;-77
2022/10/02 15:15:12;;;;;;;1999.90;999.90;;;16.70;99.90;;;;;;6630217;89;20236;-77
2022/10/02 15:25:34;;;;;;;1999.90;999.90;;;16.70;99.90;;;;;;6628796;89;20219;-78
2022/10/02 15:36:05;;;;;;;1999.90;999.90;;;16.70;99.90;;;;;;6629223;89;20220;-78
2022/10/02 15:46:51;;;;;;;1999.90;999.90;;;16.50;99.90;;;;;;6629848;89;20193;-77
2022/10/02 15:57:20;;;;;;;1999.90;999.90;;;16.70;99.90;;;;;;6629011;89;20703;-79
2022/10/02 16:07:35;;;;;;;1999.90;999.90;;;16.60;99.90;;;;;;6628828;89;20207;-77
2022/10/02 16:17:51;;;;;;;1999.90;999.90;;;17.00;99.90;;;;;;6642410;88;20192;-77
2022/10/02 16:28:10;;;;;;;1999.90;999.90;;;16.80;99.90;;;;;;6629666;89;20209;-79
2022/10/02 16:38:17;;;;;;;1999.90;999.90;;;16.60;99.90;;;;;;6628084;89;20600;-77
2022/10/02 16:48:24;;;;;;;1999.90;999.90;;;16.40;99.90;;;;;;6646821;88;20238;-77
2022/10/02 16:58:37;;;;;;;1999.90;999.90;;;15.90;99.90;;;;;;6633221;89;20587;-77
2022/10/02 17:08:46;;;;;;;1999.90;999.90;;;15.50;99.90;;;;;;6634924;89;20716;-81
2022/10/02 17:19:00;;;;;;;1999.90;999.90;;;15.20;99.90;;;;;;6637206;89;20302;-78
2022/10/02 17:29:15;;;;;;;1999.90;999.90;;;14.90;99.90;;;;;;6639118;89;20726;-78
2022/10/02 17:39:41;;;;;;;1999.90;999.90;;;14.60;99.90;;;;;;6632142;89;20181;-77
2022/10/02 17:49:49;;;;;;;1999.90;999.90;;;14.40;99.90;;;;;;6632074;89;20209;-79
2022/10/02 18:00:21;;;;;;;1999.90;999.90;;;14.20;99.90;;;;;;6633095;89;20304;-79
2022/10/02 18:10:38;;;;;;;1999.90;999.90;;;14.10;99.90;;;;;;6634128;89;20267;-79
2022/10/02 18:20:48;;;;;;;1999.90;999.90;;;14.10;99.90;;;;;;6632611;89;20201;-77
2022/10/02 18:31:12;;;;;;;1999.90;999.90;;;14.10;99.90;;;;;;6630553;89;20311;-79
2022/10/02 18:41:31;;;;;;;1999.90;999.90;;;13.90;99.90;;;;;;6629478;89;21040;-78
2022/10/02 18:51:39;;;;;;;1999.90;999.90;;;13.80;99.90;;;;;;6642966;88;20185;-79
2022/10/02 19:01:46;;;;;;;1999.90;999.90;;;13.60;99.90;;;;;;6630025;89;20299;-78
2022/10/02 19:11:56;;;;;;;1999.90;999.90;;;13.50;99.90;;;;;;6630039;89;20217;-78
2022/10/02 19:22:08;;;;;;;1999.90;999.90;;;13.40;99.90;;;;;;6633264;89;20311;-78
2022/10/02 19:32:23;;;;;;;1999.90;999.90;;;13.40;99.90;;;;;;6634992;89;20612;-78
2022/10/02 19:42:28;;;;;;;1999.90;999.90;;;13.30;99.90;;;;;;6636672;89;20623;-78
2022/10/02 19:52:35;;;;;;;;;;;13.00;99.90;;;;;;6635072;89;20664;-78
2022/10/02 20:02:40;;;;;;;1999.90;999.90;;;13.10;99.90;;;;;;6634738;89;20060;-78
2022/10/02 20:13:12;;;;;;;1999.90;999.90;;;13.00;99.90;;;;;;6636917;89;20205;-78
2022/10/02 20:23:22;;;;;;;1999.90;999.90;;;13.00;99.90;;;;;;6638573;89;20193;-78
2022/10/02 20:33:40;;;;;;;1999.90;999.90;;;12.80;99.90;;;;;;6639458;89;20720;-78
2022/10/02 20:43:53;;;;;;;1999.90;999.90;;;12.80;99.90;;;;;;6635026;89;20243;-78
2022/10/02 20:54:33;;;;;;;1999.90;999.90;;;12.70;99.90;;;;;;6656264;77;20597;-77
2022/10/02 21:05:01;;;;;;;1999.90;999.90;;;12.70;99.90;;;;;;6665763;88;20177;-78
2022/10/02 21:15:17;;;;;;;1999.90;999.90;;;12.70;99.90;;;;;;6658624;89;20685;-78
2022/10/02 21:25:59;;;;;;;1999.90;999.90;;;12.80;99.90;;;;;;6656423;89;20345;-77
2022/10/02 21:36:18;;;;;;;1999.90;999.90;;;12.80;99.90;;;;;;6655305;89;20627;-77
2022/10/02 21:46:57;;;;;;;1999.90;999.90;;;12.70;99.90;;;;;;6654605;88;20196;-78
2022/10/02 21:57:27;;;;;;;1999.90;999.90;;;12.60;99.90;;;;;;6648270;89;20206;-78
2022/10/02 22:07:35;;;;;;;1999.90;999.90;;;12.40;99.90;;;;;;6650097;89;20178;-78
2022/10/02 22:17:46;;;;;;;1999.90;999.90;;;12.30;99.90;;;;;;6651874;88;20216;-78
2022/10/02 22:28:03;;;;;;;1999.90;999.90;;;12.20;99.90;;;;;;6650381;89;20214;-79
2022/10/02 22:38:34;;;;;;;1999.90;999.90;;;12.00;99.90;;;;;;6664091;88;20562;-78
2022/10/02 22:48:53;;;;;;;1999.90;999.90;;;12.00;99.90;;;;;;6664624;89;20640;-78
2022/10/02 22:59:07;;;;;;;1999.90;999.90;;;12.00;99.90;;;;;;6677025;88;20263;-78
2022/10/02 23:09:20;;;;;;;1999.90;999.90;;;11.90;99.90;;;;;;6652122;88;20285;-79
2022/10/02 23:19:37;;;;;;;1999.90;999.90;;;11.90;99.90;;;;;;6656652;89;20248;-78
2022/10/02 23:29:50;;;;;;;1999.90;999.90;;;11.90;99.90;;;;;;6651680;89;20169;-79
2022/10/02 23:41:35;;;;;;;1999.90;999.90;;;11.80;99.90;;;;;;6658115;89;20736;-78
2022/10/02 23:50:56;;;;;;;1999.90;999.90;;;11.80;99.90;;;;;;6660171;88;20243;-78
